Time;durP1;ratioP1;P1;durP2;ratioP2;P2;SDS_P1;SDS_P2;PMS_P1;PMS_P2;Temp;Humidity;BMP_temperature;BMP_pressure;BME280_temperature;BME280_humidity;BME280_pressure;Samples;Min_cycle;Max_cycle;Signal;HPM_P1;HPM_P2
2022/09/09 00:00:47;;;;;;;13.15;6.85;;;25.70;99.90;;;;;;5046908;28;20119;-72
2022/09/09 00:03:19;;;;;;;8.68;4.80;;;25.80;99.90;;;;;;5030501;28;20045;-72
2022/09/09 00:06:02;;;;;;;14.23;6.20;;;25.80;99.90;;;;;;5047778;28;20048;-76
2022/09/09 00:08:59;;;;;;;12.00;8.02;;;25.80;99.90;;;;;;5030397;28;20143;-72
2022/09/09 00:11:46;;;;;;;19.67;8.55;;;25.80;99.90;;;;;;5043602;28;20049;-72
2022/09/09 00:14:36;;;;;;;17.98;8.35;;;25.70;99.90;;;;;;5032319;28;20042;-72
2022/09/09 00:17:17;;;;;;;18.95;7.63;;;25.70;99.90;;;;;;5027913;28;20133;-74
2022/09/09 00:20:00;;;;;;;13.32;6.03;;;25.70;99.90;;;;;;5045329;28;20037;-71
2022/09/09 00:22:31;;;;;;;14.05;6.80;;;25.70;99.90;;;;;;5027073;28;20076;-72
2022/09/09 00:25:21;;;;;;;10.20;6.10;;;25.70;99.90;;;;;;5027850;28;20127;-72
2022/09/09 00:27:50;;;;;;;19.13;6.25;;;25.70;99.90;;;;;;5026379;28;20164;-71
2022/09/09 00:30:22;;;;;;;12.07;5.80;;;25.60;99.90;;;;;;5020795;28;20064;-71
2022/09/09 00:32:55;;;;;;;14.73;6.45;;;25.60;99.90;;;;;;5025089;28;20061;-71
2022/09/09 00:35:25;;;;;;;13.38;5.85;;;25.60;99.90;;;;;;5014077;28;20195;-74
2022/09/09 00:37:57;;;;;;;12.88;6.60;;;25.60;99.90;;;;;;5020498;28;20057;-73
2022/09/09 00:40:38;;;;;;;9.38;5.88;;;25.60;99.90;;;;;;5016331;28;20438;-71
2022/09/09 00:43:26;;;;;;;13.13;7.72;;;25.60;99.90;;;;;;5029363;28;20063;-74
2022/09/09 00:46:14;;;;;;;13.60;6.73;;;25.50;99.90;;;;;;5013143;28;20377;-72
2022/09/09 00:48:41;;;;;;;10.15;4.88;;;25.50;99.90;;;;;;5013770;28;20156;-72
2022/09/09 00:51:17;;;;;;;15.07;7.47;;;25.50;99.90;;;;;;5031374;28;20483;-72
2022/09/09 00:54:27;;;;;;;12.55;6.47;;;25.50;99.90;;;;;;4996266;28;20048;-75
2022/09/09 00:57:06;;;;;;;10.48;5.03;;;25.50;99.90;;;;;;5022878;28;20054;-73
2022/09/09 01:00:14;;;;;;;15.75;6.75;;;25.40;99.90;;;;;;4995034;28;20081;-75
2022/09/09 01:03:14;;;;;;;13.40;5.85;;;25.50;99.90;;;;;;5011499;28;20053;-71
2022/09/09 01:06:07;;;;;;;17.45;6.68;;;25.40;99.90;;;;;;5027603;28;20428;-72
2022/09/09 01:08:56;;;;;;;9.50;5.05;;;25.40;99.90;;;;;;5028455;28;20053;-71
2022/09/09 01:11:56;;;;;;;10.25;4.75;;;25.40;99.90;;;;;;5029778;28;20065;-71
2022/09/09 01:14:41;;;;;;;11.32;5.20;;;25.40;99.90;;;;;;5005638;28;20526;-71
2022/09/09 01:17:27;;;;;;;11.40;6.07;;;25.40;99.90;;;;;;5013111;28;20038;-74
2022/09/09 01:20:31;;;;;;;8.88;5.22;;;25.40;99.90;;;;;;4997182;28;20056;-72
2022/09/09 01:23:19;;;;;;;11.38;5.82;;;25.30;99.90;;;;;;5029013;28;20042;-71
2022/09/09 01:26:24;;;;;;;12.27;6.38;;;25.30;99.90;;;;;;5014024;28;20053;-71
2022/09/09 01:28:54;;;;;;;12.32;6.05;;;25.30;99.90;;;;;;5013354;28;20114;-71
2022/09/09 01:31:38;;;;;;;15.32;7.65;;;25.30;99.90;;;;;;5045449;28;20143;-72
2022/09/09 01:34:14;;;;;;;13.32;6.40;;;25.30;99.90;;;;;;5031742;28;20063;-71
2022/09/09 01:36:59;;;;;;;8.85;5.03;;;25.30;99.90;;;;;;5048964;28;20052;-72
2022/09/09 01:39:28;;;;;;;14.10;6.95;;;25.30;99.90;;;;;;5049070;28;20049;-71
2022/09/09 01:42:11;;;;;;;12.63;6.03;;;25.30;99.90;;;;;;5031827;28;20041;-71
2022/09/09 01:44:40;;;;;;;14.35;5.60;;;25.30;99.90;;;;;;5032444;28;20040;-76
2022/09/09 01:47:08;;;;;;;10.50;5.88;;;25.30;99.90;;;;;;5048584;28;20037;-71
2022/09/09 01:49:50;;;;;;;11.57;6.43;;;25.30;99.90;;;;;;5049093;28;20041;-72
2022/09/09 01:52:23;;;;;;;11.02;5.75;;;25.30;99.90;;;;;;5048859;28;20097;-72
2022/09/09 01:54:50;;;;;;;10.15;6.20;;;25.30;99.90;;;;;;5048933;28;20045;-71
2022/09/09 01:57:31;;;;;;;15.60;6.10;;;25.30;99.90;;;;;;5048821;28;20403;-75
2022/09/09 02:00:11;;;;;;;15.15;5.95;;;25.30;99.90;;;;;;5048646;28;20048;-71
2022/09/09 02:02:56;;;;;;;13.57;6.38;;;25.30;99.90;;;;;;5050480;28;20089;-71
2022/09/09 02:05:35;;;;;;;11.45;6.45;;;25.20;99.90;;;;;;5048917;28;20568;-71
2022/09/09 02:08:13;;;;;;;17.35;5.80;;;25.30;99.90;;;;;;5048456;28;20045;-71
2022/09/09 02:11:02;;;;;;;15.20;7.35;;;25.30;99.90;;;;;;5048659;28;20065;-71
2022/09/09 02:13:40;;;;;;;17.88;7.07;;;25.30;99.90;;;;;;5048429;28;20049;-72
2022/09/09 02:16:18;;;;;;;11.77;5.57;;;25.30;99.90;;;;;;5048511;28;20049;-71
2022/09/09 02:18:50;;;;;;;10.45;5.63;;;25.20;99.90;;;;;;5031789;28;20065;-73
2022/09/09 02:21:30;;;;;;;11.70;5.57;;;25.20;99.90;;;;;;5033070;28;20079;-75
2022/09/09 02:24:00;;;;;;;9.30;6.40;;;25.20;99.90;;;;;;5047825;28;20499;-72
2022/09/09 02:26:32;;;;;;;9.52;6.80;;;25.30;99.90;;;;;;5015648;28;20045;-71
2022/09/09 02:29:16;;;;;;;12.18;6.30;;;25.30;99.90;;;;;;5030432;28;20505;-71
2022/09/09 02:31:47;;;;;;;12.82;6.55;;;25.20;99.90;;;;;;5015315;28;20581;-73
2022/09/09 02:34:23;;;;;;;13.23;7.03;;;25.20;99.90;;;;;;5032478;28;20064;-71
2022/09/09 02:36:53;;;;;;;10.43;5.80;;;25.20;99.90;;;;;;5047972;28;20029;-72
2022/09/09 02:39:21;;;;;;;11.95;5.47;;;25.20;99.90;;;;;;5031336;28;20186;-71
2022/09/09 02:41:51;;;;;;;10.48;6.05;;;25.20;99.90;;;;;;5047560;28;20071;-71
2022/09/09 02:44:28;;;;;;;11.52;5.97;;;25.20;99.90;;;;;;5032591;28;20049;-72
2022/09/09 02:47:06;;;;;;;8.45;5.80;;;25.20;99.90;;;;;;5048658;28;20045;-72
2022/09/09 02:49:59;;;;;;;10.00;6.38;;;25.20;99.90;;;;;;5047727;28;20041;-73
2022/09/09 02:52:55;;;;;;;12.63;6.82;;;25.20;99.90;;;;;;5031653;28;20049;-71
2022/09/09 02:55:36;;;;;;;8.98;5.60;;;25.20;99.90;;;;;;5014981;28;20158;-72
2022/09/09 02:58:09;;;;;;;8.68;5.35;;;25.20;99.90;;;;;;5047235;28;20047;-72
2022/09/09 03:00:37;;;;;;;13.82;6.55;;;25.20;99.90;;;;;;5043314;28;20119;-72
2022/09/09 03:03:06;;;;;;;11.68;6.60;;;25.20;99.90;;;;;;5047171;28;20041;-71
2022/09/09 03:05:35;;;;;;;17.40;5.20;;;25.20;99.90;;;;;;5047483;28;20051;-72
2022/09/09 03:08:05;;;;;;;8.82;4.88;;;25.10;99.90;;;;;;5047288;28;20121;-72
2022/09/09 03:10:34;;;;;;;15.63;7.38;;;25.10;99.90;;;;;;5048524;28;20115;-73
2022/09/09 03:13:05;;;;;;;11.65;6.32;;;25.20;99.90;;;;;;5031544;28;20250;-74
2022/09/09 03:15:37;;;;;;;10.60;5.63;;;25.10;99.90;;;;;;5030987;28;20625;-71
2022/09/09 03:18:07;;;;;;;10.82;4.90;;;25.10;99.90;;;;;;5047076;28;20068;-71
2022/09/09 03:20:35;;;;;;;7.90;5.25;;;25.20;99.90;;;;;;5014331;28;20053;-72
2022/09/09 03:23:03;;;;;;;14.05;5.70;;;25.20;99.90;;;;;;5030431;28;20136;-73
2022/09/09 03:25:31;;;;;;;16.20;6.05;;;25.20;99.90;;;;;;5011101;28;20099;-71
2022/09/09 03:28:00;;;;;;;13.52;6.22;;;25.20;99.90;;;;;;5027328;28;20077;-71
2022/09/09 03:30:28;;;;;;;11.90;5.85;;;25.20;99.90;;;;;;5010851;28;20441;-72
2022/09/09 03:32:57;;;;;;;11.18;5.97;;;25.20;99.90;;;;;;5027240;28;20813;-71
2022/09/09 03:35:30;;;;;;;11.35;5.65;;;25.30;99.90;;;;;;5012093;28;20041;-71
2022/09/09 03:37:58;;;;;;;13.63;5.90;;;25.30;99.90;;;;;;5026703;28;20077;-72
2022/09/09 03:40:26;;;;;;;8.57;5.22;;;25.30;99.90;;;;;;5027436;28;20080;-71
2022/09/09 03:42:53;;;;;;;9.60;6.38;;;25.30;99.90;;;;;;5027346;28;20125;-71
2022/09/09 03:45:21;;;;;;;11.48;5.90;;;25.30;99.90;;;;;;5026968;28;20403;-71
2022/09/09 03:47:49;;;;;;;10.77;5.63;;;25.30;99.90;;;;;;4994192;28;20408;-72
2022/09/09 03:50:18;;;;;;;8.55;4.18;;;25.30;99.90;;;;;;5010637;28;20057;-71
2022/09/09 03:52:48;;;;;;;10.18;5.22;;;25.30;99.90;;;;;;5027441;28;20507;-72
2022/09/09 03:55:20;;;;;;;10.00;6.40;;;25.40;99.90;;;;;;5027196;28;20049;-72
2022/09/09 03:57:48;;;;;;;16.20;5.88;;;25.40;99.90;;;;;;5010326;28;20050;-72
2022/09/09 04:00:16;;;;;;;11.43;5.60;;;25.40;99.90;;;;;;5012687;28;20495;-71
2022/09/09 04:02:45;;;;;;;9.07;5.22;;;25.40;99.90;;;;;;5014690;28;20049;-72
2022/09/09 04:05:15;;;;;;;10.27;6.05;;;25.40;99.90;;;;;;5015044;28;20088;-71
2022/09/09 04:07:45;;;;;;;10.65;5.90;;;25.40;99.90;;;;;;5014313;28;20419;-77
2022/09/09 04:10:13;;;;;;;13.57;6.32;;;25.40;99.90;;;;;;5014453;28;20044;-71
2022/09/09 04:12:41;;;;;;;9.52;5.43;;;25.40;99.90;;;;;;4998265;28;20046;-74
2022/09/09 04:15:09;;;;;;;9.80;6.18;;;25.40;99.90;;;;;;5030834;28;20136;-71
2022/09/09 04:17:38;;;;;;;12.68;7.32;;;25.30;99.90;;;;;;5036983;28;20037;-72
2022/09/09 04:20:11;;;;;;;11.07;5.78;;;25.40;99.90;;;;;;5050225;28;20041;-72
2022/09/09 04:22:38;;;;;;;11.13;6.03;;;25.40;99.90;;;;;;5050589;28;20041;-70
2022/09/09 04:25:07;;;;;;;15.45;6.07;;;25.30;99.90;;;;;;5033904;28;20164;-71
2022/09/09 04:27:35;;;;;;;12.80;5.65;;;25.30;99.90;;;;;;5017342;28;20483;-72
2022/09/09 04:30:02;;;;;;;11.90;6.03;;;25.30;99.90;;;;;;5050106;28;20051;-71
2022/09/09 04:32:33;;;;;;;15.57;6.72;;;25.30;99.90;;;;;;5034166;28;20164;-71
2022/09/09 04:35:01;;;;;;;10.80;5.55;;;25.30;99.90;;;;;;5051754;28;20136;-72
2022/09/09 04:37:28;;;;;;;15.65;7.28;;;25.30;99.90;;;;;;5049833;28;20554;-72
2022/09/09 04:39:56;;;;;;;12.45;6.22;;;25.30;99.90;;;;;;5033347;28;20051;-74
2022/09/09 04:42:24;;;;;;;21.08;8.18;;;25.40;99.90;;;;;;5033116;28;20136;-71
2022/09/09 04:44:51;;;;;;;9.68;5.20;;;25.30;99.90;;;;;;5050967;28;20045;-71
2022/09/09 04:47:19;;;;;;;12.45;6.10;;;25.40;99.90;;;;;;5033385;28;20056;-72
2022/09/09 04:49:47;;;;;;;9.63;5.25;;;25.40;99.90;;;;;;5017015;28;20110;-73
2022/09/09 04:52:17;;;;;;;12.40;6.03;;;25.40;99.90;;;;;;5049963;28;20040;-72
2022/09/09 04:54:45;;;;;;;10.32;5.10;;;25.40;99.90;;;;;;5049793;28;20045;-71
2022/09/09 04:57:12;;;;;;;11.75;5.82;;;25.40;99.90;;;;;;5049469;28;20095;-71
2022/09/09 04:59:44;;;;;;;9.70;4.93;;;25.50;99.90;;;;;;5050901;28;20495;-72
2022/09/09 05:02:12;;;;;;;8.63;5.43;;;25.50;99.90;;;;;;5033163;28;20053;-71
2022/09/09 05:04:39;;;;;;;8.35;5.55;;;25.50;99.90;;;;;;5016440;28;20056;-73
2022/09/09 05:07:07;;;;;;;9.75;4.95;;;25.50;99.90;;;;;;5035438;28;20037;-72
2022/09/09 05:09:35;;;;;;;12.85;6.32;;;25.60;99.90;;;;;;5013116;28;20196;-71
2022/09/09 05:12:04;;;;;;;15.65;6.15;;;25.50;99.90;;;;;;5012009;28;20045;-72
2022/09/09 05:14:37;;;;;;;13.63;5.70;;;25.60;99.90;;;;;;5029670;28;20076;-71
2022/09/09 05:17:05;;;;;;;10.88;5.68;;;25.60;99.90;;;;;;5013366;28;20050;-71
2022/09/09 05:19:35;;;;;;;13.15;5.63;;;25.60;99.90;;;;;;5029525;28;20064;-72
2022/09/09 05:22:02;;;;;;;13.00;5.25;;;25.60;99.90;;;;;;5012764;28;20053;-75
2022/09/09 05:24:38;;;;;;;;;;;25.60;99.90;;;;;;5014636;28;20395;-72
2022/09/09 05:27:07;;;;;;;7.18;5.00;;;25.60;99.90;;;;;;5013031;28;19925;-72
2022/09/09 05:29:34;;;;;;;11.05;5.47;;;25.70;99.90;;;;;;5029288;28;20045;-74
2022/09/09 05:32:04;;;;;;;10.07;5.65;;;25.70;99.90;;;;;;5028988;28;20049;-71
2022/09/09 05:34:34;;;;;;;10.13;5.22;;;25.70;99.90;;;;;;5029411;28;20045;-74
2022/09/09 05:37:02;;;;;;;17.10;5.95;;;25.70;99.90;;;;;;5012675;28;20522;-73
2022/09/09 05:39:30;;;;;;;9.90;5.45;;;25.70;99.90;;;;;;5029059;28;20139;-71
2022/09/09 05:41:57;;;;;;;11.18;5.57;;;25.70;99.90;;;;;;5028845;28;20356;-72
2022/09/09 05:44:27;;;;;;;19.30;6.13;;;25.80;99.90;;;;;;5029162;28;20041;-71
2022/09/09 05:46:55;;;;;;;14.85;7.18;;;25.80;99.90;;;;;;5028940;28;20127;-72
2022/09/09 05:49:22;;;;;;;10.43;5.47;;;25.80;99.90;;;;;;4996331;28;20056;-73
2022/09/09 05:51:50;;;;;;;12.05;5.72;;;25.80;99.90;;;;;;5028547;28;20037;-71
2022/09/09 05:54:19;;;;;;;12.32;6.03;;;25.80;99.90;;;;;;5012786;28;20403;-73
2022/09/09 05:56:52;;;;;;;9.60;4.57;;;25.80;99.90;;;;;;5012167;28;20053;-72
2022/09/09 05:59:20;;;;;;;11.15;5.18;;;25.80;99.90;;;;;;5012200;28;20049;-72
2022/09/09 06:01:50;;;;;;;11.38;5.78;;;25.90;99.90;;;;;;5028228;28;20140;-74
2022/09/09 06:04:24;;;;;;;12.43;5.22;;;25.90;99.90;;;;;;5028446;28;20041;-71
2022/09/09 06:06:52;;;;;;;7.40;4.75;;;26.00;99.90;;;;;;5028378;28;20103;-72
2022/09/09 06:09:22;;;;;;;9.85;5.00;;;26.00;99.90;;;;;;5011999;28;20522;-73
2022/09/09 06:11:50;;;;;;;8.63;5.22;;;26.00;99.90;;;;;;5011959;28;20501;-74
2022/09/09 06:14:20;;;;;;;8.63;5.28;;;26.00;99.90;;;;;;5029773;28;20415;-71
2022/09/09 06:16:49;;;;;;;8.55;5.13;;;26.00;99.90;;;;;;5028478;28;20488;-72
2022/09/09 06:19:21;;;;;;;9.20;4.47;;;26.10;99.90;;;;;;5011704;28;20049;-71
2022/09/09 06:21:50;;;;;;;18.63;6.47;;;26.10;99.90;;;;;;5010841;28;20611;-71
2022/09/09 06:24:19;;;;;;;10.07;4.75;;;26.10;99.90;;;;;;5011805;28;20098;-72
2022/09/09 06:26:48;;;;;;;9.27;5.53;;;26.20;99.90;;;;;;4996146;28;20488;-72
2022/09/09 06:29:21;;;;;;;10.13;5.68;;;26.20;99.90;;;;;;5029365;28;20472;-71
2022/09/09 06:31:50;;;;;;;15.38;6.25;;;26.20;99.90;;;;;;5011511;28;20115;-71
2022/09/09 06:34:21;;;;;;;6.78;5.20;;;26.20;99.90;;;;;;5012416;28;20124;-71
2022/09/09 06:36:52;;;;;;;9.32;5.13;;;26.20;99.90;;;;;;5011526;28;20399;-71
2022/09/09 06:39:22;;;;;;;10.75;4.93;;;26.20;99.90;;;;;;5028052;28;20122;-71
2022/09/09 06:41:52;;;;;;;11.50;5.05;;;26.20;99.90;;;;;;5027611;28;20033;-71
2022/09/09 06:44:39;;;;;;;13.60;5.82;;;26.30;99.90;;;;;;5027599;28;20045;-72
2022/09/09 06:47:11;;;;;;;7.82;4.50;;;26.50;99.90;;;;;;5027730;28;20048;-73
2022/09/09 06:49:43;;;;;;;9.93;5.28;;;26.70;99.90;;;;;;5027703;28;20049;-71
2022/09/09 06:52:12;;;;;;;15.98;6.05;;;26.80;99.90;;;;;;5028061;28;20107;-72
2022/09/09 06:54:40;;;;;;;7.50;5.05;;;26.80;99.90;;;;;;5011093;28;20056;-72
2022/09/09 06:57:08;;;;;;;6.55;4.32;;;26.70;99.90;;;;;;5029593;28;20041;-74
2022/09/09 06:59:48;;;;;;;8.10;5.72;;;26.80;99.90;;;;;;5010812;28;20064;-74
2022/09/09 07:02:15;;;;;;;8.18;4.75;;;26.80;99.90;;;;;;5011051;28;20562;-70
2022/09/09 07:04:44;;;;;;;13.98;5.85;;;26.80;99.90;;;;;;5011175;28;20072;-73
2022/09/09 07:07:13;;;;;;;11.73;5.00;;;26.80;99.90;;;;;;5027036;28;20064;-72
2022/09/09 07:09:41;;;;;;;9.02;5.05;;;26.80;99.90;;;;;;5027444;28;20404;-71
2022/09/09 07:12:09;;;;;;;11.02;4.63;;;26.90;99.90;;;;;;5027318;28;20045;-72
2022/09/09 07:14:41;;;;;;;10.77;4.55;;;26.90;99.90;;;;;;5012350;28;20037;-73
2022/09/09 07:17:09;;;;;;;12.85;4.45;;;26.90;99.90;;;;;;5011499;28;20053;-72
2022/09/09 07:19:40;;;;;;;11.93;5.78;;;26.90;99.90;;;;;;5011944;28;20057;-73
2022/09/09 07:22:08;;;;;;;12.63;5.70;;;26.90;99.90;;;;;;5027381;28;20154;-71
2022/09/09 07:24:37;;;;;;;9.70;4.80;;;26.90;99.90;;;;;;5011631;28;20049;-71
2022/09/09 07:27:05;;;;;;;10.15;5.28;;;27.00;99.90;;;;;;5027220;28;20052;-72
2022/09/09 07:29:35;;;;;;;7.95;4.53;;;27.10;99.90;;;;;;4994826;28;20512;-72
2022/09/09 07:32:04;;;;;;;15.15;5.28;;;27.30;99.90;;;;;;5010184;28;20361;-72
2022/09/09 07:34:35;;;;;;;11.85;5.13;;;27.30;99.90;;;;;;5026876;28;20395;-72
2022/09/09 07:37:03;;;;;;;12.25;5.20;;;27.40;99.90;;;;;;5027087;28;20081;-72
2022/09/09 07:39:32;;;;;;;13.88;5.30;;;27.50;99.90;;;;;;4994783;28;20061;-74
2022/09/09 07:42:01;;;;;;;11.77;5.07;;;27.40;99.90;;;;;;5010362;28;20393;-71
2022/09/09 07:44:29;;;;;;;11.77;4.60;;;27.40;99.90;;;;;;5011026;28;20065;-73
2022/09/09 07:47:04;;;;;;;10.60;5.60;;;27.40;99.90;;;;;;5026551;28;20141;-76
2022/09/09 07:49:36;;;;;;;10.95;5.85;;;27.50;99.90;;;;;;5042352;28;20055;-72
2022/09/09 07:52:06;;;;;;;9.57;5.22;;;27.50;99.90;;;;;;5014068;28;20088;-72
2022/09/09 07:54:41;;;;;;;9.23;4.82;;;27.70;99.90;;;;;;5030326;28;20135;-72
2022/09/09 07:57:12;;;;;;;11.07;5.57;;;27.90;99.90;;;;;;5030057;28;20044;-72
2022/09/09 07:59:46;;;;;;;10.65;4.97;;;28.10;99.90;;;;;;5048397;28;20056;-72
2022/09/09 08:02:16;;;;;;;14.30;5.15;;;28.30;99.90;;;;;;5031489;28;20153;-76
2022/09/09 08:04:46;;;;;;;10.52;5.03;;;28.40;99.90;;;;;;5031143;28;20110;-72
2022/09/09 08:07:21;;;;;;;15.45;4.95;;;28.70;99.90;;;;;;5030565;28;20045;-77
2022/09/09 08:10:02;;;;;;;9.40;4.95;;;28.90;99.90;;;;;;5047229;28;20072;-73
2022/09/09 08:12:42;;;;;;;6.45;4.32;;;28.90;99.90;;;;;;5015151;28;20080;-73
2022/09/09 08:15:19;;;;;;;15.30;4.93;;;29.00;99.90;;;;;;5016121;28;20131;-72
2022/09/09 08:17:48;;;;;;;12.55;4.68;;;29.10;99.90;;;;;;5046632;28;20114;-71
2022/09/09 08:20:17;;;;;;;9.30;4.32;;;29.20;99.90;;;;;;5030685;28;20076;-72
2022/09/09 08:22:50;;;;;;;11.40;4.63;;;29.20;99.90;;;;;;5046988;28;20063;-74
2022/09/09 08:25:23;;;;;;;11.52;5.30;;;29.20;99.90;;;;;;5013161;28;20555;-72
2022/09/09 08:27:53;;;;;;;8.52;5.22;;;29.30;99.90;;;;;;5029791;28;20686;-76
2022/09/09 08:30:21;;;;;;;8.05;4.50;;;29.30;99.90;;;;;;5047917;28;20118;-74
2022/09/09 08:32:50;;;;;;;11.98;5.18;;;29.10;99.90;;;;;;5046347;28;20093;-71
2022/09/09 08:35:20;;;;;;;14.70;6.55;;;28.90;99.90;;;;;;5047528;28;20047;-72
2022/09/09 08:37:53;;;;;;;11.15;5.65;;;28.80;99.90;;;;;;5029557;28;20513;-71
2022/09/09 08:40:29;;;;;;;11.85;4.88;;;28.80;99.90;;;;;;5029854;28;20121;-73
2022/09/09 08:43:02;;;;;;;15.63;6.55;;;29.10;99.90;;;;;;5013891;28;20061;-70
2022/09/09 08:45:57;;;;;;;10.23;5.20;;;29.20;99.90;;;;;;5011950;28;20053;-71
2022/09/09 08:48:32;;;;;;;12.30;5.67;;;29.20;99.90;;;;;;5013602;28;20060;-70
2022/09/09 08:51:01;;;;;;;11.35;6.18;;;29.20;99.90;;;;;;5029857;28;20124;-71
2022/09/09 08:53:43;;;;;;;9.10;4.95;;;29.10;99.90;;;;;;5013485;28;20057;-73
2022/09/09 08:56:19;;;;;;;11.77;4.80;;;29.20;99.90;;;;;;5013462;28;20507;-70
2022/09/09 08:58:53;;;;;;;11.65;4.75;;;29.40;99.90;;;;;;5029911;28;20084;-70
2022/09/09 09:01:42;;;;;;;7.60;4.95;;;29.50;99.90;;;;;;5013289;28;20058;-72
2022/09/09 09:04:56;;;;;;;12.82;4.18;;;29.50;99.90;;;;;;5014058;28;20946;-71
2022/09/09 09:07:43;;;;;;;20.73;5.70;;;29.50;99.90;;;;;;5013069;28;20091;-71
2022/09/09 09:10:36;;;;;;;14.20;5.13;;;29.60;99.90;;;;;;5012762;28;20072;-70
2022/09/09 09:13:36;;;;;;;10.55;4.90;;;29.80;99.90;;;;;;4997428;28;20099;-73
2022/09/09 09:16:38;;;;;;;13.82;5.85;;;30.00;99.90;;;;;;5029133;28;20955;-71
2022/09/09 09:19:12;;;;;;;12.60;5.82;;;29.80;99.90;;;;;;5012519;28;20177;-71
2022/09/09 09:22:15;;;;;;;14.02;5.45;;;29.70;99.90;;;;;;5012400;28;20045;-70
2022/09/09 09:25:08;;;;;;;9.35;5.50;;;29.60;99.90;;;;;;5012050;28;20045;-73
2022/09/09 09:27:44;;;;;;;14.77;6.20;;;29.60;99.90;;;;;;4996014;28;20174;-71
2022/09/09 09:30:19;;;;;;;10.23;4.55;;;29.60;99.90;;;;;;5029076;28;20057;-70
2022/09/09 09:33:04;;;;;;;8.98;4.28;;;29.80;99.90;;;;;;5029009;28;20042;-71
2022/09/09 09:35:32;;;;;;;11.15;4.57;;;30.10;99.90;;;;;;5012472;28;20049;-71
2022/09/09 09:38:22;;;;;;;18.52;5.55;;;30.30;99.90;;;;;;5011940;28;20053;-70
2022/09/09 09:41:11;;;;;;;10.63;4.40;;;30.40;99.90;;;;;;5029287;28;20047;-71
2022/09/09 09:43:42;;;;;;;11.88;5.57;;;30.40;99.90;;;;;;4996123;28;20088;-73
2022/09/09 09:46:23;;;;;;;12.85;5.40;;;30.20;99.90;;;;;;5012729;28;20068;-73
2022/09/09 09:49:08;;;;;;;19.60;5.65;;;30.20;99.90;;;;;;4996098;28;20140;-72
2022/09/09 09:51:37;;;;;;;13.90;5.32;;;30.20;99.90;;;;;;4996392;28;20061;-72
2022/09/09 09:54:18;;;;;;;13.60;5.63;;;30.00;99.90;;;;;;5028218;28;20033;-73
2022/09/09 09:56:52;;;;;;;10.85;4.95;;;29.90;99.90;;;;;;5002563;28;20148;-74
2022/09/09 09:59:23;;;;;;;14.55;5.65;;;29.90;99.90;;;;;;5030209;28;20099;-72
2022/09/09 10:02:27;;;;;;;8.60;4.38;;;30.00;99.90;;;;;;5046585;28;20478;-73
2022/09/09 10:05:02;;;;;;;10.85;4.93;;;30.10;99.90;;;;;;5031962;28;20096;-72
2022/09/09 10:07:33;;;;;;;11.40;5.70;;;30.00;99.90;;;;;;5031559;28;20045;-72
2022/09/09 10:10:01;;;;;;;12.70;6.25;;;30.00;99.90;;;;;;5031972;28;20128;-72
2022/09/09 10:12:53;;;;;;;22.33;6.75;;;29.80;99.90;;;;;;5031751;28;20337;-72
2022/09/09 10:15:25;;;;;;;11.07;4.97;;;30.00;99.90;;;;;;5031677;28;20348;-72
2022/09/09 10:18:49;;;;;;;12.23;5.73;;;30.10;99.90;;;;;;5047233;28;20045;-73
2022/09/09 10:21:33;;;;;;;13.27;4.47;;;30.20;99.90;;;;;;5008458;28;20408;-75
2022/09/09 10:24:52;;;;;;;12.23;4.88;;;30.30;99.90;;;;;;5044527;28;20057;-72
2022/09/09 10:27:44;;;;;;;16.67;5.82;;;30.30;99.90;;;;;;5010306;28;20152;-72
2022/09/09 10:30:21;;;;;;;10.30;5.30;;;30.30;99.90;;;;;;5010158;28;20064;-73
2022/09/09 10:32:55;;;;;;;15.35;6.03;;;30.50;99.90;;;;;;5043089;28;20057;-73
2022/09/09 10:35:54;;;;;;;12.68;4.35;;;30.50;99.90;;;;;;5049279;28;20095;-72
2022/09/09 10:38:28;;;;;;;7.82;4.53;;;30.70;99.90;;;;;;5047778;28;20067;-73
2022/09/09 10:40:56;;;;;;;16.30;5.82;;;30.60;99.90;;;;;;5031237;28;20054;-73
2022/09/09 10:43:49;;;;;;;21.48;5.43;;;30.60;99.90;;;;;;5031279;28;20075;-74
2022/09/09 10:46:28;;;;;;;17.02;5.03;;;30.70;99.90;;;;;;5047936;28;20802;-72
2022/09/09 10:49:23;;;;;;;13.02;5.15;;;30.60;99.90;;;;;;5047535;28;20055;-73
2022/09/09 10:51:58;;;;;;;10.57;5.78;;;30.80;99.90;;;;;;5047358;28;20052;-73
2022/09/09 10:55:07;;;;;;;9.82;4.32;;;30.70;99.90;;;;;;5047357;28;20045;-73
2022/09/09 10:57:50;;;;;;;13.52;5.35;;;30.80;99.90;;;;;;5047175;28;20056;-73
2022/09/09 11:00:27;;;;;;;12.00;4.68;;;30.40;99.90;;;;;;5046908;28;20037;-72
2022/09/09 11:03:04;;;;;;;11.30;5.65;;;30.60;99.90;;;;;;5047408;28;20052;-75
2022/09/09 11:06:01;;;;;;;8.25;4.57;;;30.70;99.90;;;;;;5047463;28;20044;-73
2022/09/09 11:08:31;;;;;;;10.15;4.68;;;30.60;99.90;;;;;;5029879;28;20144;-73
2022/09/09 11:11:29;;;;;;;9.55;4.30;;;30.60;99.90;;;;;;5046918;28;20036;-72
2022/09/09 11:14:22;;;;;;;18.50;5.95;;;30.70;99.90;;;;;;5046727;28;20045;-76
2022/09/09 11:17:16;;;;;;;16.75;5.25;;;31.00;99.90;;;;;;5046810;28;20406;-73
2022/09/09 11:19:45;;;;;;;14.52;5.40;;;31.10;99.90;;;;;;5030096;28;20067;-72
2022/09/09 11:22:40;;;;;;;13.20;5.32;;;30.90;99.90;;;;;;5029925;28;20491;-73
2022/09/09 11:25:17;;;;;;;19.92;6.00;;;30.90;99.90;;;;;;5010636;28;20057;-73
2022/09/09 11:28:00;;;;;;;12.82;5.03;;;30.80;99.90;;;;;;5028290;28;20050;-71
2022/09/09 11:31:11;;;;;;;11.52;4.93;;;31.00;99.90;;;;;;5026789;28;20183;-70
2022/09/09 11:33:45;;;;;;;12.13;5.05;;;31.10;99.90;;;;;;5038820;28;20061;-75
2022/09/09 11:36:31;;;;;;;11.85;5.38;;;31.20;99.90;;;;;;5027869;28;20037;-70
2022/09/09 11:39:28;;;;;;;12.35;4.80;;;31.10;99.90;;;;;;5042693;28;20084;-71
2022/09/09 11:42:11;;;;;;;16.50;5.05;;;31.00;99.90;;;;;;5027208;28;20072;-71
2022/09/09 11:44:41;;;;;;;13.82;4.88;;;30.80;99.90;;;;;;5010305;28;20092;-71
2022/09/09 11:47:31;;;;;;;12.45;4.70;;;30.80;99.90;;;;;;5010246;28;20037;-70
2022/09/09 11:50:32;;;;;;;9.93;4.47;;;30.70;99.90;;;;;;5009883;28;20041;-70
2022/09/09 11:53:23;;;;;;;11.20;5.10;;;30.50;99.90;;;;;;5027888;28;20514;-70
2022/09/09 11:56:26;;;;;;;14.80;5.05;;;30.50;99.90;;;;;;5009957;28;20060;-70
2022/09/09 11:58:55;;;;;;;14.25;5.13;;;30.50;99.90;;;;;;5006686;28;20053;-72
2022/09/09 12:01:44;;;;;;;12.90;5.13;;;30.80;99.90;;;;;;5010092;28;20098;-72
2022/09/09 12:04:44;;;;;;;16.08;5.30;;;30.80;99.90;;;;;;5026542;28;20459;-70
2022/09/09 12:07:29;;;;;;;8.95;4.80;;;30.80;99.90;;;;;;5023181;28;20128;-71
2022/09/09 12:10:19;;;;;;;12.30;5.38;;;30.80;99.90;;;;;;5010046;28;20106;-70
2022/09/09 12:12:47;;;;;;;13.45;5.18;;;30.60;99.90;;;;;;5026356;28;20056;-71
2022/09/09 12:15:27;;;;;;;13.75;5.70;;;30.60;99.90;;;;;;5009746;28;20063;-73
2022/09/09 12:17:58;;;;;;;20.23;6.25;;;30.50;99.90;;;;;;5025718;28;20127;-74
2022/09/09 12:20:36;;;;;;;11.65;5.55;;;30.50;99.90;;;;;;5026610;28;20041;-70
2022/09/09 12:23:04;;;;;;;;;;;30.40;99.90;;;;;;5013958;28;20111;-71
2022/09/09 12:25:44;;;;;;;11.55;5.32;;;30.50;99.90;;;;;;5013475;28;19921;-71
2022/09/09 12:28:41;;;;;;;13.82;5.53;;;30.50;99.90;;;;;;5029698;28;20045;-71
2022/09/09 12:31:34;;;;;;;16.83;5.85;;;30.30;99.90;;;;;;5029675;28;20365;-71
2022/09/09 12:34:27;;;;;;;18.70;5.93;;;30.30;99.90;;;;;;5029465;28;20038;-70
2022/09/09 12:37:02;;;;;;;12.43;5.10;;;30.30;99.90;;;;;;5025569;28;20097;-71
2022/09/09 12:39:38;;;;;;;14.73;5.13;;;30.20;99.90;;;;;;5013398;28;20053;-72
2022/09/09 12:42:17;;;;;;;16.50;6.10;;;30.20;99.90;;;;;;5030639;28;20045;-70
2022/09/09 12:44:58;;;;;;;13.38;5.50;;;30.10;99.90;;;;;;4997021;28;20092;-72
2022/09/09 12:47:42;;;;;;;11.13;5.25;;;30.10;99.90;;;;;;5013668;28;20064;-72
2022/09/09 12:50:26;;;;;;;9.80;5.03;;;30.20;99.90;;;;;;4997021;28;20132;-77
2022/09/09 12:53:01;;;;;;;15.43;4.72;;;30.20;99.90;;;;;;5029534;28;20061;-72
2022/09/09 12:55:33;;;;;;;16.60;5.53;;;30.20;99.90;;;;;;4996551;28;20073;-75
2022/09/09 12:58:04;;;;;;;16.25;5.95;;;30.20;99.90;;;;;;5029091;28;20049;-70
2022/09/09 13:00:34;;;;;;;16.25;5.57;;;30.30;99.90;;;;;;4996329;28;20049;-73
2022/09/09 13:03:16;;;;;;;16.75;6.03;;;30.30;99.90;;;;;;4996695;28;20567;-72
2022/09/09 13:05:46;;;;;;;20.05;6.25;;;30.20;99.90;;;;;;5013193;28;20065;-76
2022/09/09 13:08:24;;;;;;;14.90;6.22;;;30.20;99.90;;;;;;5041729;28;20629;-72
2022/09/09 13:11:03;;;;;;;12.90;6.40;;;30.20;99.90;;;;;;5012872;28;20053;-71
2022/09/09 13:13:42;;;;;;;17.38;5.88;;;30.20;99.90;;;;;;5030550;28;20341;-71
2022/09/09 13:16:39;;;;;;;18.63;6.15;;;30.30;99.90;;;;;;5030052;28;20115;-71
2022/09/09 13:19:17;;;;;;;11.40;6.47;;;30.30;99.90;;;;;;5025031;28;20191;-71
2022/09/09 13:21:45;;;;;;;14.57;5.75;;;30.40;99.90;;;;;;5012655;28;20048;-73
2022/09/09 13:24:33;;;;;;;14.60;6.30;;;30.30;99.90;;;;;;5029575;28;20371;-72
2022/09/09 13:27:03;;;;;;;17.80;5.82;;;30.30;99.90;;;;;;5028953;28;20057;-71
2022/09/09 13:29:32;;;;;;;18.20;5.57;;;30.40;99.90;;;;;;5012570;28;20037;-71